Terminal Aerodrome Forecast
Issued by NWS Portland, ME

Home | Current Version | Previous Version | Text Only | Print | Product List | Glossary On
Versions: 1 2 3 4 5 6 7 8 9 10 11 12 13 14 15 16 17 18 19 20 21 22 23 24 25
000
FTUS41 KGYX 280215 AAA
TAFPWM
TAF AMD
KPWM 280215Z 2802/2824 01022G33KT 3SM -SN BLSN SCT025 OVC050
     FM280400 34018G26KT 5SM -SN BLSN BR BKN025 OVC040
     FM281600 33012KT P6SM BKN040 BKN080
     FM282000 32009KT P6SM SCT050 SCT100=

USA.gov is the U.S. government's official web portal to all federal, state and local government web resources and services.